sensor_id;sensor_type;location;lat;lon;timestamp;temperature;humidity
24446;DHT22;13347;50.984;5.822;2023-06-10T00:01:15;19.90;1.00
24446;DHT22;13347;50.984;5.822;2023-06-10T00:03:43;19.90;1.00
24446;DHT22;13347;50.984;5.822;2023-06-10T00:06:10;19.90;1.00
24446;DHT22;13347;50.984;5.822;2023-06-10T00:08:37;19.90;1.00
24446;DHT22;13347;50.984;5.822;2023-06-10T00:11:05;20.10;1.00
24446;DHT22;13347;50.984;5.822;2023-06-10T00:13:32;20.00;1.00
24446;DHT22;13347;50.984;5.822;2023-06-10T00:15:59;19.80;1.00
24446;DHT22;13347;50.984;5.822;2023-06-10T00:18:26;19.70;1.00
24446;DHT22;13347;50.984;5.822;2023-06-10T00:20:58;19.60;84.30
24446;DHT22;13347;50.984;5.822;2023-06-10T00:23:29;19.40;99.90
24446;DHT22;13347;50.984;5.822;2023-06-10T00:25:57;19.40;99.90
24446;DHT22;13347;50.984;5.822;2023-06-10T00:28:24;19.20;99.90
24446;DHT22;13347;50.984;5.822;2023-06-10T00:30:51;19.20;99.90
24446;DHT22;13347;50.984;5.822;2023-06-10T00:33:18;19.10;99.90
24446;DHT22;13347;50.984;5.822;2023-06-10T00:35:45;19.00;1.00
24446;DHT22;13347;50.984;5.822;2023-06-10T00:38:14;18.90;1.00
24446;DHT22;13347;50.984;5.822;2023-06-10T00:40:41;18.90;1.00
24446;DHT22;13347;50.984;5.822;2023-06-10T00:43:08;18.80;1.00
24446;DHT22;13347;50.984;5.822;2023-06-10T00:45:35;18.80;1.00
24446;DHT22;13347;50.984;5.822;2023-06-10T00:48:02;18.70;1.00
24446;DHT22;13347;50.984;5.822;2023-06-10T00:50:30;18.70;1.00
24446;DHT22;13347;50.984;5.822;2023-06-10T00:52:58;18.70;1.00
24446;DHT22;13347;50.984;5.822;2023-06-10T00:55:26;18.60;1.00
24446;DHT22;13347;50.984;5.822;2023-06-10T00:57:53;18.60;50.10
24446;DHT22;13347;50.984;5.822;2023-06-10T01:00:21;18.50;99.90
24446;DHT22;13347;50.984;5.822;2023-06-10T01:02:48;18.50;99.90
24446;DHT22;13347;50.984;5.822;2023-06-10T01:05:17;18.50;99.90
24446;DHT22;13347;50.984;5.822;2023-06-10T01:07:47;18.40;99.90
24446;DHT22;13347;50.984;5.822;2023-06-10T01:10:20;18.40;1.00
24446;DHT22;13347;50.984;5.822;2023-06-10T01:12:52;18.30;1.00
24446;DHT22;13347;50.984;5.822;2023-06-10T01:15:22;18.30;1.00
24446;DHT22;13347;50.984;5.822;2023-06-10T01:17:55;18.30;1.00
24446;DHT22;13347;50.984;5.822;2023-06-10T01:20:23;18.40;1.00
24446;DHT22;13347;50.984;5.822;2023-06-10T01:22:53;18.40;1.00
24446;DHT22;13347;50.984;5.822;2023-06-10T01:25:21;18.30;1.00
24446;DHT22;13347;50.984;5.822;2023-06-10T01:27:54;18.20;1.00
24446;DHT22;13347;50.984;5.822;2023-06-10T01:30:25;18.20;1.00
24446;DHT22;13347;50.984;5.822;2023-06-10T01:32:55;18.20;66.80
24446;DHT22;13347;50.984;5.822;2023-06-10T01:35:24;18.20;98.50
24446;DHT22;13347;50.984;5.822;2023-06-10T01:37:52;18.20;99.90
24446;DHT22;13347;50.984;5.822;2023-06-10T01:40:21;18.20;99.90
24446;DHT22;13347;50.984;5.822;2023-06-10T01:42:50;18.20;99.90
24446;DHT22;13347;50.984;5.822;2023-06-10T01:45:18;18.20;99.90
24446;DHT22;13347;50.984;5.822;2023-06-10T01:47:45;18.20;99.90
24446;DHT22;13347;50.984;5.822;2023-06-10T01:50:12;18.10;1.00
24446;DHT22;13347;50.984;5.822;2023-06-10T01:52:38;18.10;1.00
24446;DHT22;13347;50.984;5.822;2023-06-10T01:55:06;18.20;1.00
24446;DHT22;13347;50.984;5.822;2023-06-10T01:57:34;18.30;1.00
24446;DHT22;13347;50.984;5.822;2023-06-10T02:00:01;18.30;1.00
24446;DHT22;13347;50.984;5.822;2023-06-10T02:02:28;18.20;1.00
24446;DHT22;13347;50.984;5.822;2023-06-10T02:04:55;18.20;1.00
24446;DHT22;13347;50.984;5.822;2023-06-10T02:07:22;18.20;1.00
24446;DHT22;13347;50.984;5.822;2023-06-10T02:09:49;18.20;1.00
24446;DHT22;13347;50.984;5.822;2023-06-10T02:12:16;18.30;1.00
24446;DHT22;13347;50.984;5.822;2023-06-10T02:14:44;18.20;1.00
24446;DHT22;13347;50.984;5.822;2023-06-10T02:17:11;18.20;1.00
24446;DHT22;13347;50.984;5.822;2023-06-10T02:19:40;18.00;1.00
24446;DHT22;13347;50.984;5.822;2023-06-10T02:22:08;17.90;1.00
24446;DHT22;13347;50.984;5.822;2023-06-10T02:24:35;17.90;45.60
24446;DHT22;13347;50.984;5.822;2023-06-10T02:27:02;17.80;99.90
24446;DHT22;13347;50.984;5.822;2023-06-10T02:29:32;17.80;99.90
24446;DHT22;13347;50.984;5.822;2023-06-10T02:32:01;17.80;99.90
24446;DHT22;13347;50.984;5.822;2023-06-10T02:34:28;17.70;99.90
24446;DHT22;13347;50.984;5.822;2023-06-10T02:36:55;17.60;1.00
24446;DHT22;13347;50.984;5.822;2023-06-10T02:39:22;17.60;1.00
24446;DHT22;13347;50.984;5.822;2023-06-10T02:41:49;17.50;99.90
24446;DHT22;13347;50.984;5.822;2023-06-10T02:44:17;17.50;99.90
24446;DHT22;13347;50.984;5.822;2023-06-10T02:46:44;17.50;99.90
24446;DHT22;13347;50.984;5.822;2023-06-10T02:49:12;17.40;99.90
24446;DHT22;13347;50.984;5.822;2023-06-10T02:51:39;17.40;99.90
24446;DHT22;13347;50.984;5.822;2023-06-10T02:54:06;17.40;99.90
24446;DHT22;13347;50.984;5.822;2023-06-10T02:56:33;17.40;99.90
24446;DHT22;13347;50.984;5.822;2023-06-10T02:59:00;17.30;1.00
24446;DHT22;13347;50.984;5.822;2023-06-10T03:01:27;17.20;1.00
24446;DHT22;13347;50.984;5.822;2023-06-10T03:03:55;17.20;99.90
24446;DHT22;13347;50.984;5.822;2023-06-10T03:06:23;17.20;1.00
24446;DHT22;13347;50.984;5.822;2023-06-10T03:08:51;17.10;1.00
24446;DHT22;13347;50.984;5.822;2023-06-10T03:11:18;17.10;1.00
24446;DHT22;13347;50.984;5.822;2023-06-10T03:13:46;17.10;1.00
24446;DHT22;13347;50.984;5.822;2023-06-10T03:16:12;17.00;1.00
24446;DHT22;13347;50.984;5.822;2023-06-10T03:18:39;16.90;1.00
24446;DHT22;13347;50.984;5.822;2023-06-10T03:21:06;16.90;59.10
24446;DHT22;13347;50.984;5.822;2023-06-10T03:23:35;16.90;99.90
24446;DHT22;13347;50.984;5.822;2023-06-10T03:26:02;16.90;99.90
24446;DHT22;13347;50.984;5.822;2023-06-10T03:28:30;16.90;99.90
24446;DHT22;13347;50.984;5.822;2023-06-10T03:30:57;16.90;99.90
24446;DHT22;13347;50.984;5.822;2023-06-10T03:33:23;16.70;1.00
24446;DHT22;13347;50.984;5.822;2023-06-10T03:35:51;16.60;1.00
24446;DHT22;13347;50.984;5.822;2023-06-10T03:38:18;16.60;1.00
24446;DHT22;13347;50.984;5.822;2023-06-10T03:40:47;16.60;1.00
24446;DHT22;13347;50.984;5.822;2023-06-10T03:43:14;16.80;1.00
24446;DHT22;13347;50.984;5.822;2023-06-10T03:45:41;16.90;8.70
24446;DHT22;13347;50.984;5.822;2023-06-10T03:48:07;16.90;1.00
24446;DHT22;13347;50.984;5.822;2023-06-10T03:50:34;16.90;1.00
24446;DHT22;13347;50.984;5.822;2023-06-10T03:53:01;16.90;1.00
24446;DHT22;13347;50.984;5.822;2023-06-10T03:55:28;17.00;1.00
24446;DHT22;13347;50.984;5.822;2023-06-10T03:57:58;17.00;1.00
24446;DHT22;13347;50.984;5.822;2023-06-10T04:00:25;17.00;1.00
24446;DHT22;13347;50.984;5.822;2023-06-10T04:02:52;17.10;1.00
24446;DHT22;13347;50.984;5.822;2023-06-10T04:05:19;17.10;1.00
24446;DHT22;13347;50.984;5.822;2023-06-10T04:07:47;17.20;1.00
24446;DHT22;13347;50.984;5.822;2023-06-10T04:10:15;17.20;1.00
24446;DHT22;13347;50.984;5.822;2023-06-10T04:12:42;17.30;1.00
24446;DHT22;13347;50.984;5.822;2023-06-10T04:15:10;17.30;1.00
24446;DHT22;13347;50.984;5.822;2023-06-10T04:17:38;17.40;1.00
24446;DHT22;13347;50.984;5.822;2023-06-10T04:20:06;17.40;1.00
24446;DHT22;13347;50.984;5.822;2023-06-10T04:22:33;17.50;1.00
24446;DHT22;13347;50.984;5.822;2023-06-10T04:25:00;17.60;99.90
24446;DHT22;13347;50.984;5.822;2023-06-10T04:27:27;17.90;99.90
24446;DHT22;13347;50.984;5.822;2023-06-10T04:29:54;17.90;1.00
24446;DHT22;13347;50.984;5.822;2023-06-10T04:32:22;17.90;1.00
24446;DHT22;13347;50.984;5.822;2023-06-10T04:34:49;18.00;1.00
24446;DHT22;13347;50.984;5.822;2023-06-10T04:37:16;18.00;1.00
24446;DHT22;13347;50.984;5.822;2023-06-10T04:39:43;18.10;1.00
24446;DHT22;13347;50.984;5.822;2023-06-10T04:42:10;18.10;1.00
24446;DHT22;13347;50.984;5.822;2023-06-10T04:44:37;18.10;1.00
24446;DHT22;13347;50.984;5.822;2023-06-10T04:47:04;18.40;99.90
24446;DHT22;13347;50.984;5.822;2023-06-10T04:49:34;18.60;1.00
24446;DHT22;13347;50.984;5.822;2023-06-10T04:52:01;18.70;1.00
24446;DHT22;13347;50.984;5.822;2023-06-10T04:54:30;18.80;1.00
24446;DHT22;13347;50.984;5.822;2023-06-10T04:56:58;18.80;1.00
24446;DHT22;13347;50.984;5.822;2023-06-10T04:59:24;18.90;99.90
24446;DHT22;13347;50.984;5.822;2023-06-10T05:01:52;19.00;99.90
24446;DHT22;13347;50.984;5.822;2023-06-10T05:04:18;19.00;99.90
24446;DHT22;13347;50.984;5.822;2023-06-10T05:06:47;19.00;99.90
24446;DHT22;13347;50.984;5.822;2023-06-10T05:09:14;19.10;99.90
24446;DHT22;13347;50.984;5.822;2023-06-10T05:11:41;19.30;7.90
24446;DHT22;13347;50.984;5.822;2023-06-10T05:14:08;19.40;1.00
24446;DHT22;13347;50.984;5.822;2023-06-10T05:16:34;19.50;1.00
24446;DHT22;13347;50.984;5.822;2023-06-10T05:19:01;19.70;1.00
24446;DHT22;13347;50.984;5.822;2023-06-10T05:21:28;20.00;1.00
24446;DHT22;13347;50.984;5.822;2023-06-10T05:23:57;20.50;99.90
24446;DHT22;13347;50.984;5.822;2023-06-10T05:26:23;20.60;99.90
24446;DHT22;13347;50.984;5.822;2023-06-10T05:28:50;21.10;1.00
24446;DHT22;13347;50.984;5.822;2023-06-10T05:31:18;21.70;1.00
24446;DHT22;13347;50.984;5.822;2023-06-10T05:33:45;22.30;1.00
24446;DHT22;13347;50.984;5.822;2023-06-10T05:36:12;22.80;99.90
24446;DHT22;13347;50.984;5.822;2023-06-10T05:38:39;22.80;1.00
24446;DHT22;13347;50.984;5.822;2023-06-10T05:41:07;23.00;1.00
24446;DHT22;13347;50.984;5.822;2023-06-10T05:43:34;23.20;1.00
24446;DHT22;13347;50.984;5.822;2023-06-10T05:46:01;23.70;1.00
24446;DHT22;13347;50.984;5.822;2023-06-10T05:48:27;23.80;1.00
24446;DHT22;13347;50.984;5.822;2023-06-10T05:50:54;24.10;1.00
24446;DHT22;13347;50.984;5.822;2023-06-10T05:53:21;24.40;1.00
24446;DHT22;13347;50.984;5.822;2023-06-10T05:55:48;24.60;1.00
24446;DHT22;13347;50.984;5.822;2023-06-10T05:58:16;24.70;1.00
24446;DHT22;13347;50.984;5.822;2023-06-10T06:00:43;24.90;99.90
24446;DHT22;13347;50.984;5.822;2023-06-10T06:03:10;25.10;99.90
24446;DHT22;13347;50.984;5.822;2023-06-10T06:05:37;25.00;99.90
24446;DHT22;13347;50.984;5.822;2023-06-10T06:08:04;25.00;99.90
24446;DHT22;13347;50.984;5.822;2023-06-10T06:10:30;25.20;99.90
24446;DHT22;13347;50.984;5.822;2023-06-10T06:12:57;25.20;99.90
24446;DHT22;13347;50.984;5.822;2023-06-10T06:15:26;25.40;99.90
24446;DHT22;13347;50.984;5.822;2023-06-10T06:17:53;25.60;99.90
24446;DHT22;13347;50.984;5.822;2023-06-10T06:20:20;25.80;99.90
24446;DHT22;13347;50.984;5.822;2023-06-10T06:22:46;26.10;98.60
24446;DHT22;13347;50.984;5.822;2023-06-10T06:25:13;26.50;21.60
24446;DHT22;13347;50.984;5.822;2023-06-10T06:27:41;26.30;1.00
24446;DHT22;13347;50.984;5.822;2023-06-10T06:30:08;26.30;1.00
